Time,TemperatureF,DewpointF,PressureIn,WindDirection,WindDirectionDegrees,WindSpeedMPH,WindSpeedGustMPH,Humidity,HourlyPrecipIn,Conditions,Clouds,dailyrainin,SoftwareType,DateUTC
2014-01-18 00:04:00,36.6,16.2,29.95,SSW,208,10.0,12.0,43,0.00,,,0.00,Wunderground v.1.15,2014-01-18 06:04:00,
2014-01-18 00:10:00,36.7,15.7,29.94,SW,226,10.0,13.0,42,0.00,,,0.00,Wunderground v.1.15,2014-01-18 06:10:00,
2014-01-18 00:15:00,36.8,15.8,29.94,SSW,192,11.0,17.0,42,0.00,,,0.00,Wunderground v.1.15,2014-01-18 06:15:00,
2014-01-18 00:21:00,36.8,16.4,29.93,SW,219,10.0,10.0,43,0.00,,,0.00,Wunderground v.1.15,2014-01-18 06:21:00,
2014-01-18 00:27:00,36.6,16.2,29.93,SSW,208,9.0,11.0,43,0.00,,,0.00,Wunderground v.1.15,2014-01-18 06:27:00,
2014-01-18 00:32:00,36.6,16.7,29.92,SSW,196,10.0,12.0,44,0.00,,,0.00,Wunderground v.1.15,2014-01-18 06:32:00,
2014-01-18 00:38:00,36.4,16.5,29.92,SW,233,10.0,12.0,44,0.00,,,0.00,Wunderground v.1.15,2014-01-18 06:38:00,
2014-01-18 00:43:00,36.2,16.4,29.92,SW,223,9.0,12.0,44,0.00,,,0.00,Wunderground v.1.15,2014-01-18 06:43:00,
2014-01-18 00:49:00,36.1,16.8,29.92,SSW,207,10.0,12.0,45,0.00,,,0.00,Wunderground v.1.15,2014-01-18 06:49:00,
2014-01-18 00:54:00,35.9,16.6,29.91,SSW,213,10.0,12.0,45,0.00,,,0.00,Wunderground v.1.15,2014-01-18 06:54:00,
2014-01-18 01:00:00,35.7,16.4,29.91,SSW,202,10.0,16.0,45,0.00,,,-99.99,WeatherLink 6.0.3,2014-01-18 07:00:00,
2014-01-18 01:05:00,35.6,16.8,29.91,SSW,205,12.0,14.0,46,0.00,,,0.00,Wunderground v.1.15,2014-01-18 07:05:00,
2014-01-18 01:11:00,35.3,17.1,29.91,SSW,213,11.0,11.0,47,0.00,,,0.00,Wunderground v.1.15,2014-01-18 07:11:00,
2014-01-18 01:16:00,35.2,17.4,29.91,SW,222,11.0,15.0,48,0.00,,,0.00,Wunderground v.1.15,2014-01-18 07:16:00,
2014-01-18 01:22:00,35.1,17.8,29.91,SSW,209,10.0,13.0,49,0.00,,,0.00,Wunderground v.1.15,2014-01-18 07:22:00,
2014-01-18 01:28:00,35.3,18.0,29.91,SW,223,10.0,14.0,49,0.00,,,0.00,Wunderground v.1.15,2014-01-18 07:28:00,
2014-01-18 01:33:00,35.3,18.0,29.90,SSW,213,9.0,12.0,49,0.00,,,0.00,Wunderground v.1.15,2014-01-18 07:33:00,
2014-01-18 01:39:00,35.7,17.9,29.90,SW,217,10.0,15.0,48,0.00,,,0.00,Wunderground v.1.15,2014-01-18 07:39:00,
2014-01-18 01:45:00,35.8,18.5,29.90,SW,219,11.0,14.0,49,0.00,,,0.00,Wunderground v.1.15,2014-01-18 07:45:00,
2014-01-18 01:51:00,35.7,18.4,29.89,SW,224,10.0,13.0,49,0.00,,,0.00,Wunderground v.1.15,2014-01-18 07:51:00,
2014-01-18 01:57:00,35.5,18.2,29.89,SW,225,9.0,13.0,49,0.00,,,0.00,Wunderground v.1.15,2014-01-18 07:57:00,
2014-01-18 02:02:00,35.3,18.5,29.89,WSW,238,8.0,11.0,50,0.00,,,0.00,Wunderground v.1.15,2014-01-18 08:02:00,
2014-01-18 02:07:00,35.2,18.4,29.89,SW,222,9.0,11.0,50,0.00,,,0.00,Wunderground v.1.15,2014-01-18 08:07:00,
2014-01-18 02:12:00,35.0,18.2,29.89,SW,231,9.0,10.0,50,0.00,,,0.00,Wunderground v.1.15,2014-01-18 08:12:00,
2014-01-18 02:18:00,34.9,18.6,29.89,SW,218,9.0,13.0,51,0.00,,,0.00,Wunderground v.1.15,2014-01-18 08:18:00,
2014-01-18 02:23:00,34.8,18.5,29.89,SW,216,9.0,11.0,51,0.00,,,0.00,Wunderground v.1.15,2014-01-18 08:23:00,
2014-01-18 02:28:00,34.6,18.8,29.88,SW,222,8.0,11.0,52,0.00,,,0.00,Wunderground v.1.15,2014-01-18 08:28:00,
2014-01-18 02:33:00,34.6,18.8,29.88,SSW,213,7.0,7.0,52,0.00,,,0.00,Wunderground v.1.15,2014-01-18 08:33:00,
2014-01-18 02:38:00,34.7,18.9,29.88,South,190,8.0,12.0,52,0.00,,,0.00,Wunderground v.1.15,2014-01-18 08:38:00,
2014-01-18 02:44:00,35.0,19.1,29.88,SW,225,10.0,13.0,52,0.00,,,0.00,Wunderground v.1.15,2014-01-18 08:44:00,
2014-01-18 02:49:00,34.9,19.0,29.88,SW,219,11.0,14.0,52,0.00,,,0.00,Wunderground v.1.15,2014-01-18 08:49:00,
2014-01-18 02:54:00,34.8,18.9,29.88,SW,234,11.0,13.0,52,0.00,,,0.00,Wunderground v.1.15,2014-01-18 08:54:00,
2014-01-18 03:00:00,34.7,19.3,29.88,SW,225,10.0,16.0,53,0.00,,,-99.99,WeatherLink 6.0.3,2014-01-18 09:00:00,
2014-01-18 03:05:00,35.1,19.2,29.88,SSW,213,11.0,17.0,52,0.00,,,0.00,Wunderground v.1.15,2014-01-18 09:05:00,
2014-01-18 03:11:00,35.6,19.2,29.87,WSW,256,13.0,15.0,51,0.00,,,0.00,Wunderground v.1.15,2014-01-18 09:11:00,
2014-01-18 03:17:00,35.5,19.1,29.87,WSW,248,12.0,15.0,51,0.00,,,0.00,Wunderground v.1.15,2014-01-18 09:17:00,
2014-01-18 03:23:00,35.5,19.6,29.86,WSW,242,11.0,14.0,52,0.00,,,0.00,Wunderground v.1.15,2014-01-18 09:23:00,
2014-01-18 03:28:00,35.5,19.6,29.86,West,261,11.0,14.0,52,0.00,,,0.00,Wunderground v.1.15,2014-01-18 09:28:00,
2014-01-18 03:34:00,35.2,19.8,29.86,West,261,11.0,12.0,53,0.00,,,0.00,Wunderground v.1.15,2014-01-18 09:34:00,
2014-01-18 03:40:00,34.8,20.3,29.86,WSW,258,11.0,12.0,55,0.00,,,0.00,Wunderground v.1.15,2014-01-18 09:40:00,
2014-01-18 03:45:00,34.9,20.4,29.86,WSW,241,11.0,12.0,55,0.00,,,0.00,Wunderground v.1.15,2014-01-18 09:45:00,
2014-01-18 03:51:00,35.1,20.5,29.85,WSW,255,11.0,12.0,55,0.00,,,0.00,Wunderground v.1.15,2014-01-18 09:51:00,
2014-01-18 03:57:00,35.3,20.7,29.85,West,271,11.0,13.0,55,0.00,,,0.00,Wunderground v.1.15,2014-01-18 09:57:00,
2014-01-18 04:02:00,35.2,21.1,29.85,WSW,248,10.0,10.0,56,0.00,,,0.00,Wunderground v.1.15,2014-01-18 10:02:00,
2014-01-18 04:08:00,34.9,21.2,29.85,WSW,256,9.0,10.0,57,0.00,,,0.00,Wunderground v.1.15,2014-01-18 10:08:00,
2014-01-18 04:13:00,34.6,21.3,29.85,WSW,256,9.0,10.0,58,0.00,,,0.00,Wunderground v.1.15,2014-01-18 10:13:00,
2014-01-18 04:19:00,34.6,20.9,29.85,WSW,249,9.0,10.0,57,0.00,,,0.00,Wunderground v.1.15,2014-01-18 10:19:00,
2014-01-18 04:24:00,34.8,21.1,29.85,WSW,257,9.0,11.0,57,0.00,,,0.00,Wunderground v.1.15,2014-01-18 10:24:00,
2014-01-18 04:29:00,35.1,21.4,29.84,WSW,250,8.0,11.0,57,0.00,,,0.00,Wunderground v.1.15,2014-01-18 10:29:00,
2014-01-18 04:34:00,35.1,21.8,29.85,WSW,250,8.0,9.0,58,0.00,,,0.00,Wunderground v.1.15,2014-01-18 10:34:00,
2014-01-18 04:40:00,34.7,21.8,29.85,WSW,252,7.0,7.0,59,0.00,,,0.00,Wunderground v.1.15,2014-01-18 10:40:00,
2014-01-18 04:46:00,34.5,21.6,29.85,WSW,242,6.0,7.0,59,0.00,,,0.00,Wunderground v.1.15,2014-01-18 10:46:00,
2014-01-18 04:52:00,34.5,22.0,29.85,WSW,238,6.0,7.0,60,0.00,,,0.00,Wunderground v.1.15,2014-01-18 10:52:00,
2014-01-18 04:57:00,35.2,22.7,29.84,WSW,248,7.0,9.0,60,0.00,,,0.00,Wunderground v.1.15,2014-01-18 10:57:00,
2014-01-18 05:03:00,35.9,23.7,29.84,West,272,8.0,9.0,61,0.00,,,0.00,Wunderground v.1.15,2014-01-18 11:03:00,
2014-01-18 05:08:00,36.6,24.0,29.84,WSW,252,9.0,11.0,60,0.00,,,0.00,Wunderground v.1.15,2014-01-18 11:08:00,
2014-01-18 05:13:00,37.5,24.1,29.84,West,269,10.0,14.0,58,0.00,,,0.00,Wunderground v.1.15,2014-01-18 11:13:00,
2014-01-18 05:18:00,38.1,24.2,29.84,West,268,10.0,14.0,57,0.00,,,0.00,Wunderground v.1.15,2014-01-18 11:18:00,
2014-01-18 05:23:00,38.3,24.0,29.83,West,261,9.0,10.0,56,0.00,,,0.00,Wunderground v.1.15,2014-01-18 11:23:00,
2014-01-18 05:29:00,38.3,24.0,29.83,West,268,8.0,10.0,56,0.00,,,0.00,Wunderground v.1.15,2014-01-18 11:29:00,
2014-01-18 05:34:00,38.4,24.1,29.84,West,266,8.0,8.0,56,0.00,,,0.00,Wunderground v.1.15,2014-01-18 11:34:00,
2014-01-18 05:40:00,38.3,24.0,29.84,West,281,6.0,6.0,56,0.00,,,0.00,Wunderground v.1.15,2014-01-18 11:40:00,
2014-01-18 05:45:00,38.0,23.7,29.84,WSW,256,5.0,8.0,56,0.00,,,0.00,Wunderground v.1.15,2014-01-18 11:45:00,
2014-01-18 05:51:00,38.0,24.1,29.84,West,281,6.0,6.0,57,0.00,,,0.00,Wunderground v.1.15,2014-01-18 11:51:00,
2014-01-18 05:57:00,38.1,24.2,29.84,WNW,289,6.0,7.0,57,0.00,,,0.00,Wunderground v.1.15,2014-01-18 11:57:00,
2014-01-18 06:02:00,38.0,24.1,29.84,West,276,6.0,7.0,57,0.00,,,0.00,Wunderground v.1.15,2014-01-18 12:02:00,
2014-01-18 07:30:00,38.6,23.8,29.83,West,270,8.0,13.0,55,0.00,,,-99.99,WeatherLink 6.0.3,2014-01-18 13:30:00,
2014-01-18 08:00:00,40.5,23.3,29.83,WNW,292,11.0,19.0,50,0.00,,,-99.99,WeatherLink 6.0.3,2014-01-18 14:00:00,
2014-01-18 08:12:00,39.1,23.4,29.85,NW,325,11.0,11.0,53,0.00,,,0.00,Wunderground v.1.15,2014-01-18 14:12:00,
2014-01-18 08:17:00,39.4,23.7,29.85,WNW,292,11.0,13.0,53,0.00,,,0.00,Wunderground v.1.15,2014-01-18 14:17:00,
2014-01-18 08:22:00,39.8,23.6,29.86,NW,306,11.0,12.0,52,0.00,,,0.00,Wunderground v.1.15,2014-01-18 14:22:00,
2014-01-18 08:27:00,40.2,24.0,29.86,WNW,300,11.0,12.0,52,0.00,,,0.00,Wunderground v.1.15,2014-01-18 14:27:00,
2014-01-18 08:33:00,40.6,23.9,29.87,NW,306,11.0,12.0,51,0.00,,,0.00,Wunderground v.1.15,2014-01-18 14:33:00,
2014-01-18 08:38:00,41.0,24.2,29.87,NW,312,10.0,16.0,51,0.00,,,0.00,Wunderground v.1.15,2014-01-18 14:38:00,
2014-01-18 08:44:00,41.4,24.1,29.87,WNW,300,11.0,12.0,50,0.00,,,0.00,Wunderground v.1.15,2014-01-18 14:44:00,
2014-01-18 08:49:00,41.7,24.4,29.88,West,281,12.0,15.0,50,0.00,,,0.00,Wunderground v.1.15,2014-01-18 14:49:00,
2014-01-18 08:55:00,42.0,24.7,29.88,WNW,290,11.0,13.0,50,0.00,,,0.00,Wunderground v.1.15,2014-01-18 14:55:00,
2014-01-18 09:01:00,42.4,24.6,29.88,WNW,301,12.0,13.0,49,0.00,,,0.00,Wunderground v.1.15,2014-01-18 15:01:00,
2014-01-18 09:06:00,42.7,24.8,29.88,NW,313,12.0,14.0,49,0.00,,,0.00,Wunderground v.1.15,2014-01-18 15:06:00,
2014-01-18 09:12:00,43.1,25.2,29.88,WNW,297,12.0,14.0,49,0.00,,,0.00,Wunderground v.1.15,2014-01-18 15:12:00,
2014-01-18 09:18:00,43.3,25.4,29.89,WNW,299,12.0,14.0,49,0.00,,,0.00,Wunderground v.1.15,2014-01-18 15:18:00,
2014-01-18 09:23:00,43.6,25.7,29.89,NW,304,11.0,17.0,49,0.00,,,0.00,Wunderground v.1.15,2014-01-18 15:23:00,
2014-01-18 09:29:00,43.9,25.5,29.89,NW,308,12.0,17.0,48,0.00,,,0.00,Wunderground v.1.15,2014-01-18 15:29:00,
2014-01-18 09:35:00,44.4,25.9,29.90,NW,322,12.0,14.0,48,0.00,,,0.00,Wunderground v.1.15,2014-01-18 15:35:00,
2014-01-18 09:40:00,44.9,26.4,29.90,NW,315,12.0,12.0,48,0.00,,,0.00,Wunderground v.1.15,2014-01-18 15:40:00,
2014-01-18 09:46:00,45.5,26.4,29.90,NW,313,12.0,15.0,47,0.00,,,0.00,Wunderground v.1.15,2014-01-18 15:46:00,
2014-01-18 09:52:00,46.2,26.5,29.90,NW,318,12.0,13.0,46,0.00,,,0.00,Wunderground v.1.15,2014-01-18 15:52:00,
2014-01-18 09:57:00,46.9,26.6,29.90,WNW,287,11.0,14.0,45,0.00,,,0.00,Wunderground v.1.15,2014-01-18 15:57:00,
2014-01-18 10:03:00,47.9,26.5,29.90,NW,304,11.0,18.0,43,0.00,,,0.00,Wunderground v.1.15,2014-01-18 16:03:00,
2014-01-18 10:08:00,48.7,26.6,29.90,NW,318,12.0,18.0,42,0.00,,,0.00,Wunderground v.1.15,2014-01-18 16:08:00,
2014-01-18 10:14:00,49.3,26.6,29.90,NW,311,12.0,16.0,41,0.00,,,0.00,Wunderground v.1.15,2014-01-18 16:14:00,
2014-01-18 10:20:00,49.9,27.1,29.91,WNW,288,12.0,12.0,41,0.00,,,0.00,Wunderground v.1.15,2014-01-18 16:20:00,
2014-01-18 10:25:00,50.5,27.0,29.91,NNW,343,11.0,16.0,40,0.00,,,0.00,Wunderground v.1.15,2014-01-18 16:25:00,
2014-01-18 10:31:00,51.5,27.3,29.91,WNW,301,11.0,15.0,39,0.00,,,0.00,Wunderground v.1.15,2014-01-18 16:31:00,
2014-01-18 10:36:00,52.1,27.2,29.91,NE,44,12.0,17.0,38,0.00,,,0.00,Wunderground v.1.15,2014-01-18 16:36:00,
2014-01-18 10:42:00,52.7,27.1,29.91,NW,315,13.0,18.0,37,0.00,,,0.00,Wunderground v.1.15,2014-01-18 16:42:00,
2014-01-18 10:48:00,53.1,26.8,29.92,North,350,14.0,18.0,36,0.00,,,0.00,Wunderground v.1.15,2014-01-18 16:48:00,
2014-01-18 10:54:00,52.9,26.0,29.92,North,355,17.0,25.0,35,0.00,,,0.00,Wunderground v.1.15,2014-01-18 16:54:00,
2014-01-18 10:59:00,52.9,26.0,29.92,NE,36,16.0,25.0,35,0.00,,,0.00,Wunderground v.1.15,2014-01-18 16:59:00,
2014-01-18 11:05:00,52.4,25.5,29.92,NW,324,16.0,35.0,35,0.00,,,0.00,Wunderground v.1.15,2014-01-18 17:05:00,
2014-01-18 11:10:00,52.1,25.9,29.92,North,5,18.0,18.0,36,0.00,,,0.00,Wunderground v.1.15,2014-01-18 17:10:00,
2014-01-18 11:16:00,52.1,25.9,29.92,NNE,24,17.0,19.0,36,0.00,,,0.00,Wunderground v.1.15,2014-01-18 17:16:00,
2014-01-18 11:20:00,52.4,26.2,29.92,NNE,20,16.0,16.0,36,0.00,,,0.00,Wunderground v.1.15,2014-01-18 17:20:00,
2014-01-18 11:25:00,52.7,25.8,29.92,North,360,15.0,22.0,35,0.00,,,0.00,Wunderground v.1.15,2014-01-18 17:25:00,
2014-01-18 11:30:00,52.4,26.2,29.92,NNW,337,17.0,35.0,36,0.00,,,-99.99,WeatherLink 6.0.3,2014-01-18 17:30:00,
2014-01-18 11:35:00,52.3,26.8,29.92,North,5,19.0,27.0,37,0.00,,,0.00,Wunderground v.1.15,2014-01-18 17:35:00,
2014-01-18 11:41:00,52.6,26.4,29.91,NNE,18,18.0,18.0,36,0.00,,,0.00,Wunderground v.1.15,2014-01-18 17:41:00,
2014-01-18 11:47:00,52.4,26.2,29.91,North,360,18.0,27.0,36,0.00,,,0.00,Wunderground v.1.15,2014-01-18 17:47:00,
2014-01-18 11:52:00,52.3,25.4,29.91,NNW,342,20.0,21.0,35,0.00,,,0.00,Wunderground v.1.15,2014-01-18 17:52:00,
2014-01-18 11:58:00,52.5,26.3,29.91,NNW,333,19.0,22.0,36,0.00,,,0.00,Wunderground v.1.15,2014-01-18 17:58:00,
2014-01-18 12:03:00,52.7,26.5,29.91,NNE,25,18.0,22.0,36,0.00,,,0.00,Wunderground v.1.15,2014-01-18 18:03:00,
2014-01-18 12:09:00,53.0,26.0,29.91,NNW,328,18.0,28.0,35,0.00,,,0.00,Wunderground v.1.15,2014-01-18 18:09:00,
2014-01-18 12:15:00,53.2,26.2,29.91,NNW,339,17.0,23.0,35,0.00,,,0.00,Wunderground v.1.15,2014-01-18 18:15:00,
2014-01-18 12:20:00,53.4,25.7,29.91,North,5,17.0,17.0,34,0.00,,,0.00,Wunderground v.1.15,2014-01-18 18:20:00,
2014-01-18 12:26:00,53.5,25.1,29.91,NNW,344,17.0,27.0,33,0.00,,,0.00,Wunderground v.1.15,2014-01-18 18:26:00,
2014-01-18 12:32:00,53.7,25.2,29.91,ENE,65,16.0,18.0,33,0.00,,,0.00,Wunderground v.1.15,2014-01-18 18:32:00,
2014-01-18 12:38:00,53.5,25.1,29.91,NNW,347,18.0,20.0,33,0.00,,,0.00,Wunderground v.1.15,2014-01-18 18:38:00,
2014-01-18 12:43:00,53.2,25.5,29.91,North,11,19.0,28.0,34,0.00,,,0.00,Wunderground v.1.15,2014-01-18 18:43:00,
2014-01-18 12:49:00,53.6,25.9,29.90,North,351,18.0,28.0,34,0.00,,,0.00,Wunderground v.1.15,2014-01-18 18:49:00,
2014-01-18 12:55:00,53.4,26.4,29.91,North,350,18.0,22.0,35,0.00,,,0.00,Wunderground v.1.15,2014-01-18 18:55:00,
2014-01-18 13:00:00,53.4,26.4,29.91,NNW,337,18.0,34.0,35,0.00,,,-99.99,WeatherLink 6.0.3,2014-01-18 19:00:00,
2014-01-18 13:06:00,53.3,26.3,29.91,North,351,17.0,24.0,35,0.00,,,0.00,Wunderground v.1.15,2014-01-18 19:06:00,
2014-01-18 13:11:00,53.5,26.5,29.90,NNE,24,18.0,20.0,35,0.00,,,0.00,Wunderground v.1.15,2014-01-18 19:11:00,
2014-01-18 13:17:00,53.9,27.5,29.91,NW,306,16.0,20.0,36,0.00,,,0.00,Wunderground v.1.15,2014-01-18 19:17:00,
2014-01-18 13:23:00,53.8,26.1,29.91,NNW,342,16.0,23.0,34,0.00,,,0.00,Wunderground v.1.15,2014-01-18 19:23:00,
2014-01-18 13:29:00,53.5,26.5,29.91,North,5,18.0,23.0,35,0.00,,,0.00,Wunderground v.1.15,2014-01-18 19:29:00,
2014-01-18 13:34:00,52.7,25.1,29.92,WNW,286,16.0,23.0,34,0.00,,,0.00,Wunderground v.1.15,2014-01-18 19:34:00,
2014-01-18 13:40:00,52.5,24.9,29.92,North,355,18.0,28.0,34,0.00,,,0.00,Wunderground v.1.15,2014-01-18 19:40:00,
2014-01-18 13:45:00,52.6,24.3,29.92,NNW,332,19.0,29.0,33,0.00,,,0.00,Wunderground v.1.15,2014-01-18 19:45:00,
2014-01-18 13:51:00,52.4,24.8,29.92,NNW,330,19.0,24.0,34,0.00,,,0.00,Wunderground v.1.15,2014-01-18 19:51:00,
2014-01-18 13:57:00,52.1,24.6,29.92,North,355,19.0,24.0,34,0.00,,,0.00,Wunderground v.1.15,2014-01-18 19:57:00,
2014-01-18 14:02:00,51.9,24.4,29.92,North,5,19.0,19.0,34,0.00,,,0.00,Wunderground v.1.15,2014-01-18 20:02:00,
2014-01-18 14:08:00,52.0,24.5,29.92,NNE,17,19.0,25.0,34,0.00,,,0.00,Wunderground v.1.15,2014-01-18 20:08:00,
2014-01-18 14:14:00,52.2,24.6,29.92,NNW,348,16.0,21.0,34,0.00,,,0.00,Wunderground v.1.15,2014-01-18 20:14:00,
2014-01-18 14:19:00,52.6,25.0,29.92,NW,313,16.0,25.0,34,0.00,,,0.00,Wunderground v.1.15,2014-01-18 20:19:00,
2014-01-18 14:25:00,53.0,24.6,29.93,North,5,16.0,20.0,33,0.00,,,0.00,Wunderground v.1.15,2014-01-18 20:25:00,
2014-01-18 14:31:00,52.9,24.5,29.93,West,275,15.0,15.0,33,0.00,,,0.00,Wunderground v.1.15,2014-01-18 20:31:00,
2014-01-18 14:36:00,52.4,24.8,29.93,NNW,345,15.0,18.0,34,0.00,,,0.00,Wunderground v.1.15,2014-01-18 20:36:00,
2014-01-18 14:42:00,52.2,24.6,29.93,NNW,343,17.0,21.0,34,0.00,,,0.00,Wunderground v.1.15,2014-01-18 20:42:00,
2014-01-18 14:48:00,52.2,24.6,29.93,North,11,17.0,25.0,34,0.00,,,0.00,Wunderground v.1.15,2014-01-18 20:48:00,
2014-01-18 14:53:00,52.2,24.6,29.94,NNE,21,17.0,29.0,34,0.00,,,0.00,Wunderground v.1.15,2014-01-18 20:53:00,
2014-01-18 14:59:00,51.9,24.4,29.94,NNE,12,20.0,29.0,34,0.00,,,0.00,Wunderground v.1.15,2014-01-18 20:59:00,
2014-01-18 15:04:00,52.1,24.6,29.94,NW,313,17.0,20.0,34,0.00,,,0.00,Wunderground v.1.15,2014-01-18 21:04:00,
2014-01-18 15:10:00,52.2,24.6,29.95,NNW,332,15.0,15.0,34,0.00,,,0.00,Wunderground v.1.15,2014-01-18 21:10:00,
2014-01-18 15:16:00,51.9,24.4,29.95,NNW,333,17.0,24.0,34,0.00,,,0.00,Wunderground v.1.15,2014-01-18 21:16:00,
2014-01-18 15:21:00,51.7,24.2,29.95,NNW,346,16.0,19.0,34,0.00,,,0.00,Wunderground v.1.15,2014-01-18 21:21:00,
2014-01-18 15:27:00,51.7,24.9,29.95,North,355,17.0,19.0,35,0.00,,,0.00,Wunderground v.1.15,2014-01-18 21:27:00,
2014-01-18 15:32:00,51.7,24.9,29.96,North,355,16.0,17.0,35,0.00,,,0.00,Wunderground v.1.15,2014-01-18 21:32:00,
2014-01-18 15:38:00,51.4,24.6,29.97,NNW,342,16.0,24.0,35,0.00,,,0.00,Wunderground v.1.15,2014-01-18 21:38:00,
2014-01-18 15:43:00,51.1,24.4,29.97,NNE,29,18.0,23.0,35,0.00,,,0.00,Wunderground v.1.15,2014-01-18 21:43:00,
2014-01-18 15:49:00,51.1,24.4,29.98,WNW,301,16.0,24.0,35,0.00,,,0.00,Wunderground v.1.15,2014-01-18 21:49:00,
2014-01-18 15:54:00,50.9,24.2,29.98,NNW,331,15.0,22.0,35,0.00,,,0.00,Wunderground v.1.15,2014-01-18 21:54:00,
2014-01-18 16:00:00,50.8,23.4,29.98,NNW,337,16.0,29.0,34,0.00,,,-99.99,WeatherLink 6.0.3,2014-01-18 22:00:00,
2014-01-18 16:06:00,50.6,23.9,29.99,NNW,340,14.0,22.0,35,0.00,,,0.00,Wunderground v.1.15,2014-01-18 22:06:00,
2014-01-18 16:11:00,50.6,23.9,29.99,NNW,338,15.0,17.0,35,0.00,,,0.00,Wunderground v.1.15,2014-01-18 22:11:00,
2014-01-18 16:16:00,50.4,23.7,29.99,NNE,29,17.0,21.0,35,0.00,,,0.00,Wunderground v.1.15,2014-01-18 22:16:00,
2014-01-18 16:21:00,50.1,24.2,30.00,NNW,335,18.0,18.0,36,0.00,,,0.00,Wunderground v.1.15,2014-01-18 22:21:00,
2014-01-18 16:27:00,49.7,23.8,30.00,NW,312,18.0,27.0,36,0.00,,,0.00,Wunderground v.1.15,2014-01-18 22:27:00,
2014-01-18 16:33:00,49.5,24.3,30.01,North,355,15.0,22.0,37,0.00,,,0.00,Wunderground v.1.15,2014-01-18 22:33:00,
2014-01-18 16:38:00,49.3,24.1,30.01,NNW,338,14.0,22.0,37,0.00,,,0.00,Wunderground v.1.15,2014-01-18 22:38:00,
2014-01-18 16:44:00,49.0,23.8,30.01,NNW,346,15.0,20.0,37,0.00,,,0.00,Wunderground v.1.15,2014-01-18 22:44:00,
2014-01-18 16:50:00,48.7,24.2,30.02,NNW,341,15.0,15.0,38,0.00,,,0.00,Wunderground v.1.15,2014-01-18 22:50:00,
2014-01-18 16:55:00,48.6,24.1,30.02,North,355,15.0,18.0,38,0.00,,,0.00,Wunderground v.1.15,2014-01-18 22:55:00,
2014-01-18 17:01:00,48.3,23.8,30.02,NNW,339,16.0,16.0,38,0.00,,,0.00,Wunderground v.1.15,2014-01-18 23:01:00,
2014-01-18 17:06:00,48.1,24.3,30.03,North,360,15.0,16.0,39,0.00,,,0.00,Wunderground v.1.15,2014-01-18 23:06:00,
2014-01-18 17:12:00,47.9,24.1,30.03,NNE,16,14.0,20.0,39,0.00,,,0.00,Wunderground v.1.15,2014-01-18 23:12:00,
2014-01-18 17:17:00,47.6,23.8,30.03,NNW,330,14.0,20.0,39,0.00,,,0.00,Wunderground v.1.15,2014-01-18 23:17:00,
2014-01-18 17:22:00,47.4,24.3,30.04,North,9,13.0,14.0,40,0.00,,,0.00,Wunderground v.1.15,2014-01-18 23:22:00,
2014-01-18 17:28:00,47.1,24.0,30.04,NW,325,12.0,16.0,40,0.00,,,0.00,Wunderground v.1.15,2014-01-18 23:28:00,
2014-01-18 17:33:00,46.8,24.3,30.04,NNW,327,12.0,12.0,41,0.00,,,0.00,Wunderground v.1.15,2014-01-18 23:33:00,
2014-01-18 17:39:00,46.4,23.9,30.04,NNE,15,9.0,12.0,41,0.00,,,0.00,Wunderground v.1.15,2014-01-18 23:39:00,
2014-01-18 17:44:00,46.0,24.2,30.04,North,349,8.0,11.0,42,0.00,,,0.00,Wunderground v.1.15,2014-01-18 23:44:00,
2014-01-18 17:50:00,45.6,24.4,30.05,NNW,344,7.0,7.0,43,0.00,,,0.00,Wunderground v.1.15,2014-01-18 23:50:00,
2014-01-18 17:56:00,45.1,24.5,30.05,NNW,342,6.0,10.0,44,0.00,,,0.00,Wunderground v.1.15,2014-01-18 23:56:00,
2014-01-18 18:01:00,44.7,24.6,30.05,NNW,348,6.0,6.0,45,0.00,,,0.00,Wunderground v.1.15,2014-01-19 00:01:00,
2014-01-18 18:07:00,44.4,24.9,30.06,NNW,339,6.0,9.0,46,0.00,,,0.00,Wunderground v.1.15,2014-01-19 00:07:00,
2014-01-18 18:13:00,44.1,24.6,30.06,NW,313,6.0,8.0,46,0.00,,,0.00,Wunderground v.1.15,2014-01-19 00:13:00,
2014-01-18 18:18:00,43.9,24.9,30.06,NNW,348,6.0,8.0,47,0.00,,,0.00,Wunderground v.1.15,2014-01-19 00:18:00,
2014-01-18 18:24:00,43.5,25.1,30.06,NNW,344,6.0,9.0,48,0.00,,,0.00,Wunderground v.1.15,2014-01-19 00:24:00,
2014-01-18 18:29:00,43.2,24.8,30.07,NNE,14,7.0,9.0,48,0.00,,,0.00,Wunderground v.1.15,2014-01-19 00:29:00,
2014-01-18 18:35:00,42.9,25.0,30.07,NNW,333,8.0,8.0,49,0.00,,,0.00,Wunderground v.1.15,2014-01-19 00:35:00,
2014-01-18 18:40:00,42.6,24.8,30.07,North,351,7.0,7.0,49,0.00,,,0.00,Wunderground v.1.15,2014-01-19 00:40:00,
2014-01-18 18:46:00,42.2,24.9,30.07,NNW,347,7.0,8.0,50,0.00,,,0.00,Wunderground v.1.15,2014-01-19 00:46:00,
2014-01-18 18:52:00,41.8,25.0,30.07,NNW,344,6.0,8.0,51,0.00,,,0.00,Wunderground v.1.15,2014-01-19 00:52:00,
2014-01-18 18:57:00,41.4,24.6,30.08,NNW,335,6.0,8.0,51,0.00,,,0.00,Wunderground v.1.15,2014-01-19 00:57:00,
2014-01-18 19:03:00,41.2,24.9,30.08,NW,313,6.0,6.0,52,0.00,,,0.00,Wunderground v.1.15,2014-01-19 01:03:00,
2014-01-18 19:08:00,41.1,24.8,30.08,NNW,344,6.0,10.0,52,0.00,,,0.00,Wunderground v.1.15,2014-01-19 01:08:00,
2014-01-18 19:14:00,41.0,24.7,30.08,NNW,340,6.0,9.0,52,0.00,,,0.00,Wunderground v.1.15,2014-01-19 01:14:00,
2014-01-18 19:20:00,40.7,24.9,30.09,NW,307,5.0,5.0,53,0.00,,,0.00,Wunderground v.1.15,2014-01-19 01:20:00,
2014-01-18 19:25:00,40.5,24.7,30.08,North,350,5.0,10.0,53,0.00,,,0.00,Wunderground v.1.15,2014-01-19 01:25:00,
2014-01-18 19:31:00,40.3,25.0,30.08,North,360,7.0,10.0,54,0.00,,,0.00,Wunderground v.1.15,2014-01-19 01:31:00,
2014-01-18 19:36:00,40.2,24.9,30.08,North,355,8.0,12.0,54,0.00,,,0.00,Wunderground v.1.15,2014-01-19 01:36:00,
2014-01-18 19:42:00,40.0,24.7,30.08,NNW,344,10.0,11.0,54,0.00,,,0.00,Wunderground v.1.15,2014-01-19 01:42:00,
2014-01-18 19:48:00,39.7,24.8,30.09,North,5,9.0,11.0,55,0.00,,,0.00,Wunderground v.1.15,2014-01-19 01:48:00,
2014-01-18 19:54:00,39.4,25.0,30.09,West,273,7.0,8.0,56,0.00,,,0.00,Wunderground v.1.15,2014-01-19 01:54:00,
2014-01-18 19:59:00,39.2,24.8,30.09,NNW,345,6.0,9.0,56,0.00,,,0.00,Wunderground v.1.15,2014-01-19 01:59:00,
2014-01-18 20:06:00,39.1,24.7,30.09,WNW,298,6.0,10.0,56,0.00,,,0.00,Wunderground v.1.15,2014-01-19 02:06:00,
2014-01-18 20:12:00,38.9,24.5,30.09,North,350,5.0,6.0,56,0.00,,,0.00,Wunderground v.1.15,2014-01-19 02:12:00,
2014-01-18 20:18:00,38.5,24.6,30.09,NNW,344,5.0,6.0,57,0.00,,,0.00,Wunderground v.1.15,2014-01-19 02:18:00,
2014-01-18 20:23:00,38.4,24.9,30.09,NNW,347,5.0,8.0,58,0.00,,,0.00,Wunderground v.1.15,2014-01-19 02:23:00,
2014-01-18 20:29:00,38.3,24.8,30.09,North,5,6.0,9.0,58,0.00,,,0.00,Wunderground v.1.15,2014-01-19 02:29:00,
2014-01-18 20:34:00,38.1,24.6,30.09,NNW,347,6.0,8.0,58,0.00,,,0.00,Wunderground v.1.15,2014-01-19 02:34:00,
2014-01-18 20:40:00,37.9,24.4,30.10,NW,321,6.0,6.0,58,0.00,,,0.00,Wunderground v.1.15,2014-01-19 02:40:00,
2014-01-18 20:46:00,37.7,24.6,30.10,North,5,6.0,10.0,59,0.00,,,0.00,Wunderground v.1.15,2014-01-19 02:46:00,
2014-01-18 20:51:00,37.6,24.6,30.10,North,360,7.0,7.0,59,0.00,,,0.00,Wunderground v.1.15,2014-01-19 02:51:00,
2014-01-18 20:57:00,37.4,24.4,30.10,NNW,338,8.0,9.0,59,0.00,,,0.00,Wunderground v.1.15,2014-01-19 02:57:00,
2014-01-18 21:02:00,37.3,24.3,30.09,North,9,8.0,10.0,59,0.00,,,0.00,Wunderground v.1.15,2014-01-19 03:02:00,
2014-01-18 21:08:00,37.3,24.7,30.09,North,349,8.0,10.0,60,0.00,,,0.00,Wunderground v.1.15,2014-01-19 03:08:00,
2014-01-18 21:14:00,37.2,24.6,30.09,NNW,343,7.0,9.0,60,0.00,,,0.00,Wunderground v.1.15,2014-01-19 03:14:00,
2014-01-18 21:19:00,37.2,24.6,30.09,NNW,344,6.0,9.0,60,0.00,,,0.00,Wunderground v.1.15,2014-01-19 03:19:00,
2014-01-18 21:25:00,37.3,24.7,30.09,North,11,6.0,10.0,60,0.00,,,0.00,Wunderground v.1.15,2014-01-19 03:25:00,
2014-01-18 21:30:00,37.2,24.6,30.09,North,0,7.0,11.0,60,0.00,,,-99.99,WeatherLink 6.0.3,2014-01-19 03:30:00,
2014-01-18 21:36:00,36.9,24.3,30.09,North,355,7.0,9.0,60,0.00,,,0.00,Wunderground v.1.15,2014-01-19 03:36:00,
2014-01-18 21:41:00,36.5,24.3,30.10,North,350,5.0,6.0,61,0.00,,,0.00,Wunderground v.1.15,2014-01-19 03:41:00,
2014-01-18 21:47:00,36.0,24.2,30.10,NNW,336,3.0,6.0,62,0.00,,,0.00,Wunderground v.1.15,2014-01-19 03:47:00,
2014-01-18 21:53:00,35.6,23.9,30.10,NNW,342,2.0,3.0,62,0.00,,,0.00,Wunderground v.1.15,2014-01-19 03:53:00,
2014-01-18 21:59:00,35.3,24.0,30.10,NW,306,3.0,5.0,63,0.00,,,0.00,Wunderground v.1.15,2014-01-19 03:59:00,
2014-01-18 22:04:00,34.8,23.9,30.11,NW,319,3.0,5.0,64,0.00,,,0.00,Wunderground v.1.15,2014-01-19 04:04:00,
2014-01-18 22:10:00,34.3,23.7,30.11,NW,315,3.0,3.0,65,0.00,,,0.00,Wunderground v.1.15,2014-01-19 04:10:00,
2014-01-18 22:15:00,33.9,23.4,30.11,WNW,284,3.0,3.0,65,0.00,,,0.00,Wunderground v.1.15,2014-01-19 04:15:00,
2014-01-18 22:21:00,33.4,23.6,30.11,WNW,284,3.0,3.0,67,0.00,,,0.00,Wunderground v.1.15,2014-01-19 04:21:00,
2014-01-18 22:27:00,32.6,23.2,30.11,WNW,286,2.0,3.0,68,0.00,,,0.00,Wunderground v.1.15,2014-01-19 04:27:00,
2014-01-18 22:32:00,32.4,23.4,30.11,NW,306,3.0,4.0,69,0.00,,,0.00,Wunderground v.1.15,2014-01-19 04:32:00,
2014-01-18 22:38:00,32.6,23.6,30.11,WNW,299,3.0,4.0,69,0.00,,,0.00,Wunderground v.1.15,2014-01-19 04:38:00,
2014-01-18 22:44:00,32.5,23.5,30.10,WNW,294,3.0,3.0,69,0.00,,,0.00,Wunderground v.1.15,2014-01-19 04:44:00,
2014-01-18 22:49:00,31.7,23.0,30.11,WNW,292,2.0,3.0,70,0.00,,,0.00,Wunderground v.1.15,2014-01-19 04:49:00,
2014-01-18 22:55:00,30.7,22.4,30.11,WSW,252,3.0,4.0,71,0.00,,,0.00,Wunderground v.1.15,2014-01-19 04:55:00,
2014-01-18 23:00:00,30.8,23.2,30.11,WNW,292,3.0,7.0,73,0.00,,,-99.99,WeatherLink 6.0.3,2014-01-19 05:00:00,
2014-01-18 23:01:00,30.9,23.3,30.10,WSW,237,4.0,4.0,73,0.00,,,0.00,Wunderground v.1.15,2014-01-19 05:01:00,
2014-01-18 23:02:00,30.9,23.3,30.10,WSW,237,4.0,4.0,73,0.00,,,0.00,Wunderground v.1.15,2014-01-19 05:02:00,
2014-01-18 23:04:00,31.0,23.0,30.10,WSW,237,4.0,4.0,72,0.00,,,0.00,Wunderground v.1.15,2014-01-19 05:04:00,
2014-01-18 23:05:00,31.0,23.4,30.10,WSW,242,4.0,4.0,73,0.00,,,0.00,Wunderground v.1.15,2014-01-19 05:05:00,
2014-01-18 23:06:00,31.0,23.4,30.10,West,259,3.0,4.0,73,0.00,,,0.00,Wunderground v.1.15,2014-01-19 05:06:00,
2014-01-18 23:07:00,31.0,23.4,30.10,West,263,3.0,4.0,73,0.00,,,0.00,Wunderground v.1.15,2014-01-19 05:07:00,
2014-01-18 23:12:00,31.0,23.0,30.10,West,273,3.0,3.0,72,0.00,,,0.00,Wunderground v.1.15,2014-01-19 05:12:00,
2014-01-18 23:17:00,30.6,22.6,30.10,West,271,2.0,3.0,72,0.00,,,0.00,Wunderground v.1.15,2014-01-19 05:17:00,
2014-01-18 23:22:00,30.2,22.9,30.11,West,271,2.0,3.0,74,0.00,,,0.00,Wunderground v.1.15,2014-01-19 05:22:00,
2014-01-18 23:28:00,30.0,23.0,30.10,West,270,3.0,3.0,75,0.00,,,0.00,Wunderground v.1.15,2014-01-19 05:28:00,
2014-01-18 23:33:00,30.4,23.1,30.11,West,270,3.0,3.0,74,0.00,,,0.00,Wunderground v.1.15,2014-01-19 05:33:00,
2014-01-18 23:39:00,31.0,23.4,30.11,West,270,2.0,3.0,73,0.00,,,0.00,Wunderground v.1.15,2014-01-19 05:39:00,
2014-01-18 23:44:00,31.0,23.0,30.11,WNW,284,2.0,6.0,72,0.00,,,0.00,Wunderground v.1.15,2014-01-19 05:44:00,
2014-01-18 23:50:00,31.0,23.4,30.11,WNW,302,4.0,5.0,73,0.00,,,0.00,Wunderground v.1.15,2014-01-19 05:50:00,
2014-01-18 23:55:00,31.1,23.1,30.11,West,275,4.0,5.0,72,0.00,,,0.00,Wunderground v.1.15,2014-01-19 05:55:00,